Time;durP1;ratioP1;P1;durP2;ratioP2;P2;SDS_P1;SDS_P2;PMS_P1;PMS_P2;Temp;Humidity;BMP_temperature;BMP_pressure;BME280_temperature;BME280_humidity;BME280_pressure;Samples;Min_cycle;Max_cycle;Signal;HPM_P1;HPM_P2
2022/02/01 00:05:29;;;;;;;4.00;3.00;;;3.10;99.90;;;;;;4948481;28;20451;-65
2022/02/01 00:08:19;;;;;;;11.33;3.27;;;3.10;99.90;;;;;;4953580;29;20435;-65
2022/02/01 00:16:18;;;;;;;2.80;1.97;;;3.10;99.90;;;;;;4950981;29;20440;-65
2022/02/01 00:19:03;;;;;;;4.90;1.87;;;3.10;99.90;;;;;;4953689;28;20431;-65
2022/02/01 00:37:50;;;;;;;3.27;1.80;;;2.80;99.90;;;;;;4953600;28;20519;-65
2022/02/01 00:40:16;;;;;;;2.20;1.73;;;2.80;99.90;;;;;;4953550;28;20825;-65
2022/02/01 00:42:42;;;;;;;2.10;1.77;;;2.80;99.90;;;;;;4953630;28;20454;-65
2022/02/01 00:45:07;;;;;;;3.30;1.63;;;2.80;99.90;;;;;;4953228;28;20256;-65
2022/02/01 00:47:33;;;;;;;5.83;2.17;;;2.80;99.90;;;;;;4953300;28;20181;-65
2022/02/01 00:49:58;;;;;;;2.50;1.43;;;2.80;99.90;;;;;;4953206;28;20211;-65
2022/02/01 00:52:26;;;;;;;7.73;1.90;;;2.80;99.90;;;;;;4953260;28;20176;-65
2022/02/01 00:54:52;;;;;;;6.03;2.20;;;2.90;99.90;;;;;;4953201;28;20179;-65
2022/02/01 00:57:18;;;;;;;4.83;2.17;;;2.80;99.90;;;;;;4953162;28;20994;-65
2022/02/01 00:59:43;;;;;;;2.53;1.63;;;2.70;99.90;;;;;;4953304;28;20177;-65
2022/02/01 01:02:09;;;;;;;3.00;1.87;;;2.70;99.90;;;;;;4953299;28;20444;-65
2022/02/01 01:04:35;;;;;;;3.57;1.97;;;2.60;99.90;;;;;;4953211;29;20208;-65
2022/02/01 01:07:01;;;;;;;2.23;2.03;;;2.70;99.90;;;;;;4952589;29;20181;-65
2022/02/01 01:09:26;;;;;;;2.20;1.60;;;2.70;99.90;;;;;;4953085;28;20208;-65
2022/02/01 01:11:55;;;;;;;5.83;1.83;;;2.70;99.90;;;;;;4953230;29;20483;-65
2022/02/01 01:14:48;;;;;;;6.37;2.37;;;2.70;99.90;;;;;;4953241;29;20558;-65
2022/02/01 01:44:32;;;;;;;5.27;2.10;;;2.90;99.90;;;;;;4943902;29;20858;-65
2022/02/01 01:55:15;;;;;;;4.90;2.33;;;3.00;99.90;;;;;;4955697;29;20933;-65
2022/02/01 01:57:41;;;;;;;9.57;2.83;;;2.90;99.90;;;;;;4956201;28;20486;-65
2022/02/01 02:00:13;;;;;;;6.67;2.27;;;2.90;99.90;;;;;;4955491;28;20436;-65
2022/02/01 02:02:39;;;;;;;6.40;2.10;;;2.90;99.90;;;;;;4955689;28;20472;-65
2022/02/01 02:05:04;;;;;;;7.40;2.17;;;3.00;99.90;;;;;;4955863;28;20462;-65
2022/02/01 02:07:30;;;;;;;7.47;2.63;;;3.00;99.90;;;;;;4955356;29;20185;-65
2022/02/01 02:09:56;;;;;;;6.10;2.13;;;2.90;99.90;;;;;;4955555;28;20211;-65
2022/02/01 02:12:49;;;;;;;3.20;1.83;;;2.90;99.90;;;;;;4955375;29;20865;-65
2022/02/01 02:15:07;;;;;;;3.57;2.20;;;2.90;99.90;;;;;;4954609;29;20176;-65
2022/02/01 02:17:33;;;;;;;8.83;2.83;;;2.90;99.90;;;;;;4955355;28;20455;-65
2022/02/01 02:19:58;;;;;;;7.77;2.63;;;2.90;99.90;;;;;;4955179;28;20451;-65
2022/02/01 02:22:24;;;;;;;3.90;2.20;;;2.90;99.90;;;;;;4955545;28;20652;-65
2022/02/01 02:24:50;;;;;;;6.17;1.90;;;2.90;99.90;;;;;;4955124;29;20181;-65
2022/02/01 02:27:15;;;;;;;5.73;2.60;;;2.90;99.90;;;;;;4953479;28;20597;-65
2022/02/01 02:29:41;;;;;;;15.70;4.17;;;2.90;99.90;;;;;;4955349;29;20181;-65
2022/02/01 02:32:07;;;;;;;4.87;3.70;;;2.90;99.90;;;;;;4955074;28;20185;-65
2022/02/01 02:34:33;;;;;;;6.70;2.90;;;2.90;99.90;;;;;;4954985;28;20291;-65
2022/02/01 02:37:02;;;;;;;6.77;2.97;;;2.90;99.90;;;;;;4954924;28;20877;-65
2022/02/01 02:39:35;;;;;;;10.60;3.10;;;2.90;99.90;;;;;;4955376;29;20188;-65
2022/02/01 02:42:14;;;;;;;6.80;2.20;;;2.90;99.90;;;;;;4955164;29;20428;-65
2022/02/01 02:45:05;;;;;;;4.90;2.50;;;2.90;99.90;;;;;;4955104;28;20440;-65
2022/02/01 02:47:31;;;;;;;4.03;2.20;;;2.80;99.90;;;;;;4954797;29;20432;-65
2022/02/01 02:49:58;;;;;;;5.60;2.50;;;2.90;99.90;;;;;;4954800;29;20558;-65
2022/02/01 02:52:26;;;;;;;10.90;2.90;;;2.90;99.90;;;;;;4954736;28;20451;-65
2022/02/01 02:54:52;;;;;;;8.33;3.33;;;2.90;99.90;;;;;;4955138;29;20508;-65
2022/02/01 02:57:18;;;;;;;6.20;3.87;;;2.90;99.90;;;;;;4954096;28;20433;-65
2022/02/01 02:59:43;;;;;;;8.30;3.77;;;2.90;99.90;;;;;;4954831;29;20915;-65
2022/02/01 03:02:09;;;;;;;6.37;2.60;;;2.90;99.90;;;;;;4954511;28;20212;-65
2022/02/01 03:04:36;;;;;;;5.90;3.10;;;2.90;99.90;;;;;;4954529;28;20244;-65
2022/02/01 03:07:03;;;;;;;9.50;2.80;;;2.90;99.90;;;;;;4954249;29;20176;-65
2022/02/01 03:09:31;;;;;;;5.53;2.60;;;2.90;99.90;;;;;;4954595;28;21017;-65
2022/02/01 03:11:58;;;;;;;11.80;4.17;;;2.80;99.90;;;;;;4954365;28;20487;-65
2022/02/01 03:14:27;;;;;;;8.97;3.10;;;2.80;99.90;;;;;;4953671;28;20444;-65
2022/02/01 03:17:08;;;;;;;11.70;3.37;;;2.80;99.90;;;;;;4954046;28;20428;-65
2022/02/01 03:19:49;;;;;;;15.63;4.57;;;2.80;99.90;;;;;;4954256;29;20428;-65
2022/02/01 03:22:16;;;;;;;17.03;2.90;;;2.80;99.90;;;;;;4954245;28;20425;-65
2022/02/01 03:24:42;;;;;;;19.97;3.97;;;2.80;99.90;;;;;;4954068;29;20450;-65
2022/02/01 03:27:07;;;;;;;12.17;3.30;;;2.80;99.90;;;;;;4953778;28;20424;-65
2022/02/01 03:29:33;;;;;;;10.10;3.43;;;2.80;99.90;;;;;;4954120;28;20176;-65
2022/02/01 03:31:59;;;;;;;10.20;3.37;;;2.80;99.90;;;;;;4953815;28;20270;-65
2022/02/01 03:34:25;;;;;;;10.23;2.93;;;2.70;99.90;;;;;;4954092;29;20192;-65
2022/02/01 03:36:50;;;;;;;7.93;3.47;;;2.70;99.90;;;;;;4953705;28;21167;-65
2022/02/01 03:39:16;;;;;;;5.83;3.60;;;2.80;99.90;;;;;;4953536;28;20192;-65
2022/02/01 03:41:42;;;;;;;8.27;2.60;;;2.80;99.90;;;;;;4953979;28;20181;-65
2022/02/01 03:44:08;;;;;;;8.80;3.00;;;2.80;99.90;;;;;;4953430;28;20459;-65
2022/02/01 03:46:33;;;;;;;8.57;2.80;;;2.70;99.90;;;;;;4953603;28;20181;-65
2022/02/01 03:48:59;;;;;;;7.70;2.10;;;2.70;99.90;;;;;;4953163;28;20486;-65
2022/02/01 03:51:25;;;;;;;6.73;3.37;;;2.70;99.90;;;;;;4953559;29;20671;-65
2022/02/01 03:53:50;;;;;;;9.00;3.17;;;2.70;99.90;;;;;;4954019;28;20208;-65
2022/02/01 03:56:16;;;;;;;11.87;3.67;;;2.80;99.90;;;;;;4953644;28;20173;-65
2022/02/01 03:58:41;;;;;;;6.97;2.63;;;2.80;99.90;;;;;;4953631;28;20181;-65
2022/02/01 04:01:07;;;;;;;3.83;2.00;;;2.80;99.90;;;;;;4953806;28;20193;-65
2022/02/01 04:03:32;;;;;;;13.10;3.23;;;2.80;99.90;;;;;;4953962;28;20224;-65
2022/02/01 04:05:58;;;;;;;8.80;3.23;;;2.80;99.90;;;;;;4953183;28;20200;-65
2022/02/01 04:08:24;;;;;;;11.80;2.70;;;2.80;99.90;;;;;;4954110;29;20191;-65
2022/02/01 04:10:51;;;;;;;9.53;2.43;;;2.80;99.90;;;;;;4953769;29;20212;-65
2022/02/01 04:13:17;;;;;;;9.33;3.77;;;2.80;99.90;;;;;;4953875;29;20455;-64
2022/02/01 04:15:43;;;;;;;7.43;2.60;;;2.80;99.90;;;;;;4952682;29;20523;-64
2022/02/01 04:18:09;;;;;;;8.80;3.90;;;2.80;99.90;;;;;;4953936;29;20507;-64
2022/02/01 04:20:35;;;;;;;10.50;3.67;;;2.80;99.90;;;;;;4953602;28;20621;-65
2022/02/01 04:23:01;;;;;;;15.20;2.57;;;2.70;99.90;;;;;;4953182;29;20548;-64
2022/02/01 04:25:26;;;;;;;9.00;2.90;;;2.70;99.90;;;;;;4953493;29;20183;-65
2022/02/01 04:27:52;;;;;;;5.70;2.17;;;2.70;99.90;;;;;;4953537;28;20189;-65
2022/02/01 04:30:19;;;;;;;11.93;2.87;;;2.70;99.90;;;;;;4952968;28;20197;-65
2022/02/01 04:32:50;;;;;;;8.00;2.37;;;2.70;99.90;;;;;;4953660;29;20671;-65
2022/02/01 04:35:21;;;;;;;6.73;2.23;;;2.70;99.90;;;;;;4953489;29;20438;-65
2022/02/01 04:37:47;;;;;;;14.03;2.77;;;2.70;99.90;;;;;;4953538;29;20425;-65
2022/02/01 04:40:16;;;;;;;15.30;3.93;;;2.70;99.90;;;;;;4953563;29;20480;-64
2022/02/01 04:42:42;;;;;;;8.17;2.93;;;2.70;99.90;;;;;;4953427;28;20471;-64
2022/02/01 04:45:18;;;;;;;7.53;3.07;;;2.70;99.90;;;;;;4953261;28;20432;-64
2022/02/01 04:47:45;;;;;;;11.93;2.93;;;2.70;99.90;;;;;;4953503;28;20442;-64
2022/02/01 04:50:28;;;;;;;9.80;2.40;;;2.70;99.90;;;;;;4953471;28;20464;-64
2022/02/01 04:52:54;;;;;;;8.43;2.43;;;2.70;99.90;;;;;;4957081;28;20563;-65
2022/02/01 04:55:29;;;;;;;10.93;2.80;;;2.70;99.90;;;;;;4957300;28;20435;-64
2022/02/01 04:57:55;;;;;;;12.07;3.13;;;2.70;99.90;;;;;;4951693;29;20459;-65
2022/02/01 05:00:22;;;;;;;17.10;4.90;;;2.70;99.90;;;;;;4956949;29;20433;-64
2022/02/01 05:02:48;;;;;;;10.43;3.30;;;2.70;99.90;;;;;;4957214;28;20263;-65
2022/02/01 05:05:13;;;;;;;10.53;3.40;;;2.70;99.90;;;;;;4957107;28;20515;-65
2022/02/01 05:07:39;;;;;;;16.60;3.23;;;2.70;99.90;;;;;;4957245;28;20188;-64
2022/02/01 05:10:05;;;;;;;8.27;2.47;;;2.60;99.90;;;;;;4957043;28;20205;-64
2022/02/01 05:12:36;;;;;;;9.87;3.20;;;2.60;99.90;;;;;;4956827;28;20283;-65
2022/02/01 05:15:06;;;;;;;5.43;2.80;;;2.60;99.90;;;;;;4956708;28;20499;-65
2022/02/01 05:17:38;;;;;;;13.50;3.00;;;2.60;99.90;;;;;;4956673;28;20936;-64
2022/02/01 05:20:17;;;;;;;16.73;2.93;;;2.60;99.90;;;;;;4957013;29;20523;-65
2022/02/01 05:22:45;;;;;;;4.43;2.60;;;2.60;99.90;;;;;;4956925;28;20459;-64
2022/02/01 05:25:10;;;;;;;10.53;2.83;;;2.60;99.90;;;;;;4956326;29;20524;-65
2022/02/01 05:27:38;;;;;;;6.07;2.80;;;2.60;99.90;;;;;;4956504;28;20527;-65
2022/02/01 05:30:04;;;;;;;3.73;2.20;;;2.60;99.90;;;;;;4956339;28;20197;-64
2022/02/01 05:32:30;;;;;;;11.10;2.60;;;2.70;99.90;;;;;;4956301;28;20439;-65
2022/02/01 05:34:56;;;;;;;8.67;3.20;;;2.70;99.90;;;;;;4953963;29;20825;-65
2022/02/01 05:37:22;;;;;;;13.33;2.80;;;2.70;99.90;;;;;;4956504;29;20871;-64
2022/02/01 05:39:48;;;;;;;10.00;2.90;;;2.70;99.90;;;;;;4956472;29;20438;-65
2022/02/01 05:42:17;;;;;;;5.00;2.20;;;2.70;99.90;;;;;;4956284;28;20173;-65
2022/02/01 05:44:44;;;;;;;10.50;2.83;;;2.80;99.90;;;;;;4956572;29;20172;-65
2022/02/01 05:47:09;;;;;;;9.23;4.07;;;2.70;99.90;;;;;;4955952;28;20880;-65
2022/02/01 05:49:35;;;;;;;9.50;2.87;;;2.70;99.90;;;;;;4956512;29;20519;-65
2022/02/01 05:52:01;;;;;;;10.43;2.83;;;2.70;99.90;;;;;;4956172;28;20185;-66
2022/02/01 05:54:28;;;;;;;18.43;3.03;;;2.60;99.90;;;;;;4956048;28;21028;-64
2022/02/01 05:56:54;;;;;;;9.47;2.30;;;2.60;99.90;;;;;;4955909;28;20562;-65
2022/02/01 05:59:20;;;;;;;5.53;2.57;;;2.60;99.90;;;;;;4954558;29;20448;-64
2022/02/01 06:01:45;;;;;;;12.27;2.83;;;2.60;99.90;;;;;;4956086;28;20197;-65
2022/02/01 06:04:11;;;;;;;12.57;3.20;;;2.60;99.90;;;;;;4956288;28;20228;-65
2022/02/01 06:06:36;;;;;;;14.63;3.07;;;2.60;99.90;;;;;;4955740;29;20193;-64
2022/02/01 06:09:02;;;;;;;9.60;1.87;;;2.50;99.90;;;;;;4955889;28;20258;-65
2022/02/01 06:11:29;;;;;;;10.43;2.60;;;2.50;99.90;;;;;;4955971;28;20204;-64
2022/02/01 06:13:54;;;;;;;10.00;3.13;;;2.50;99.90;;;;;;4955772;28;20598;-65
2022/02/01 06:16:20;;;;;;;7.47;2.80;;;2.60;99.90;;;;;;4955614;28;20440;-64
2022/02/01 06:18:45;;;;;;;8.53;2.77;;;2.50;99.90;;;;;;4955638;28;20630;-65
2022/02/01 06:21:11;;;;;;;12.70;2.87;;;2.60;99.90;;;;;;4955728;28;20189;-65
2022/02/01 06:23:36;;;;;;;11.53;2.57;;;2.60;99.90;;;;;;4955633;28;20733;-64
2022/02/01 06:26:02;;;;;;;6.53;3.07;;;2.60;99.90;;;;;;4955264;28;20614;-64
2022/02/01 06:28:29;;;;;;;8.27;2.63;;;2.60;99.90;;;;;;4955174;29;20185;-64
2022/02/01 06:30:55;;;;;;;8.87;3.03;;;2.70;99.90;;;;;;4954952;29;20212;-64
2022/02/01 06:33:22;;;;;;;12.50;3.97;;;2.70;99.90;;;;;;4955230;29;20475;-64
2022/02/01 06:35:48;;;;;;;11.10;3.90;;;2.70;99.90;;;;;;4955224;29;20475;-64
2022/02/01 06:38:14;;;;;;;8.97;3.20;;;2.70;99.90;;;;;;4955526;29;20428;-64
2022/02/01 06:40:44;;;;;;;11.60;3.00;;;2.70;99.90;;;;;;4955873;29;20843;-64
2022/02/01 06:43:11;;;;;;;7.90;2.73;;;2.60;99.90;;;;;;4955183;29;20463;-64
2022/02/01 06:45:37;;;;;;;9.90;2.63;;;2.70;99.90;;;;;;4955336;29;20935;-65
2022/02/01 06:48:03;;;;;;;14.10;2.10;;;2.60;99.90;;;;;;4955775;29;20523;-64
2022/02/01 06:50:29;;;;;;;14.10;2.93;;;2.60;99.90;;;;;;4955417;28;20209;-65
2022/02/01 06:52:58;;;;;;;8.80;2.60;;;2.50;99.90;;;;;;4955096;29;20213;-64
2022/02/01 06:55:35;;;;;;;7.70;2.73;;;2.50;99.90;;;;;;4956361;28;20447;-65
2022/02/01 06:58:02;;;;;;;13.10;3.20;;;2.50;99.90;;;;;;4966786;28;20486;-65
2022/02/01 07:00:27;;;;;;;9.50;2.67;;;2.50;99.90;;;;;;4960517;28;20926;-64
2022/02/01 07:02:53;;;;;;;13.77;3.47;;;2.50;99.90;;;;;;4954848;28;20614;-64
2022/02/01 07:05:18;;;;;;;6.60;3.07;;;2.50;99.90;;;;;;4960862;28;20204;-65
2022/02/01 07:07:44;;;;;;;9.63;3.53;;;2.50;99.90;;;;;;4957185;28;20196;-64
2022/02/01 07:10:10;;;;;;;6.10;2.60;;;2.50;99.90;;;;;;4954530;28;20216;-64
2022/02/01 07:12:35;;;;;;;11.03;3.17;;;2.50;99.90;;;;;;4954656;28;20208;-65
2022/02/01 07:15:01;;;;;;;10.00;4.37;;;2.50;99.90;;;;;;4952638;28;20219;-65
2022/02/01 07:17:26;;;;;;;17.63;3.17;;;2.50;99.90;;;;;;4953637;29;20185;-64
2022/02/01 07:19:52;;;;;;;6.27;2.60;;;2.50;99.90;;;;;;4954201;28;20181;-64
2022/02/01 07:22:18;;;;;;;7.00;2.30;;;2.50;99.90;;;;;;4953012;28;20179;-64
2022/02/01 07:25:11;;;;;;;12.33;3.40;;;2.50;99.90;;;;;;4953090;28;20229;-64
2022/02/01 07:27:42;;;;;;;15.33;4.23;;;2.50;99.90;;;;;;4952747;28;20182;-64
2022/02/01 07:30:11;;;;;;;11.03;2.90;;;2.50;99.90;;;;;;4947850;29;20482;-64
2022/02/01 07:32:38;;;;;;;7.00;3.37;;;2.50;99.90;;;;;;4954194;28;21104;-64
2022/02/01 07:35:05;;;;;;;9.47;3.63;;;2.50;99.90;;;;;;4953814;29;20428;-64
2022/02/01 07:37:30;;;;;;;11.43;3.57;;;2.50;99.90;;;;;;4953852;29;20436;-65
2022/02/01 07:39:56;;;;;;;12.60;3.43;;;2.50;99.90;;;;;;4953178;28;20469;-66
2022/02/01 07:42:22;;;;;;;14.23;3.90;;;2.50;99.90;;;;;;4954380;28;20436;-66
2022/02/01 07:44:47;;;;;;;9.90;3.73;;;2.60;99.90;;;;;;4954244;28;20303;-66
2022/02/01 07:47:20;;;;;;;8.63;3.97;;;2.60;99.90;;;;;;4942535;28;21059;-66
2022/02/01 07:49:46;;;;;;;11.93;2.67;;;2.70;99.90;;;;;;4928434;28;20177;-66
2022/02/01 07:52:12;;;;;;;8.50;3.10;;;2.80;99.90;;;;;;4949743;29;20447;-66
2022/02/01 07:54:37;;;;;;;7.63;2.33;;;2.80;99.90;;;;;;4946441;29;20204;-67
2022/02/01 07:57:03;;;;;;;9.20;3.60;;;2.90;99.90;;;;;;4950586;28;20189;-66
2022/02/01 07:59:29;;;;;;;6.47;2.90;;;2.90;99.90;;;;;;4952982;29;20185;-67
2022/02/01 08:01:54;;;;;;;10.83;3.00;;;3.00;99.90;;;;;;4952509;28;20204;-67
2022/02/01 08:04:20;;;;;;;12.63;4.10;;;3.10;99.90;;;;;;4953282;28;20674;-67
2022/02/01 08:06:45;;;;;;;11.93;2.87;;;3.10;99.90;;;;;;4953673;28;20199;-66
2022/02/01 08:09:23;;;;;;;6.67;3.03;;;3.20;99.90;;;;;;4949942;28;20288;-66
2022/02/01 08:11:48;;;;;;;6.80;2.23;;;3.30;99.90;;;;;;4953021;28;20208;-66
2022/02/01 08:16:52;;;;;;;4.90;2.50;;;3.50;99.90;;;;;;4953263;28;20172;-66
2022/02/01 08:21:51;;;;;;;9.03;2.70;;;3.50;99.90;;;;;;4945034;29;20436;-66
2022/02/01 08:24:17;;;;;;;8.00;3.10;;;3.50;99.90;;;;;;4953079;28;20542;-67
2022/02/01 08:26:43;;;;;;;12.53;4.00;;;3.70;99.90;;;;;;4952743;29;20432;-66
2022/02/01 08:29:09;;;;;;;10.30;3.97;;;3.80;99.90;;;;;;4949619;29;20438;-66
2022/02/01 08:31:34;;;;;;;9.30;2.40;;;3.80;99.90;;;;;;4952533;29;20208;-66
2022/02/01 08:34:01;;;;;;;15.50;2.57;;;3.80;99.90;;;;;;4953190;28;20192;-66
2022/02/01 08:36:26;;;;;;;6.93;2.67;;;3.70;99.90;;;;;;4952625;29;20240;-67
2022/02/01 08:38:52;;;;;;;4.80;2.70;;;3.80;99.90;;;;;;4952865;28;20433;-66
2022/02/01 08:41:18;;;;;;;6.60;3.53;;;3.70;99.90;;;;;;4952942;28;20276;-66
2022/02/01 08:43:43;;;;;;;6.20;2.80;;;3.70;99.90;;;;;;4952860;28;20197;-66
2022/02/01 08:46:09;;;;;;;8.17;3.43;;;3.70;99.90;;;;;;4952415;28;20181;-66
2022/02/01 08:48:34;;;;;;;9.63;2.90;;;3.60;99.90;;;;;;4952428;28;20181;-66
2022/02/01 08:51:04;;;;;;;23.13;4.30;;;3.70;99.90;;;;;;4952712;28;20667;-66
2022/02/01 08:53:43;;;;;;;4.30;3.47;;;3.70;99.90;;;;;;4952481;28;20573;-66
2022/02/01 08:57:20;;;;;;;16.07;3.83;;;3.80;99.90;;;;;;4953133;28;20585;-66
2022/02/01 08:58:54;;;;;;;12.10;3.73;;;3.90;99.90;;;;;;4952531;29;20482;-66
2022/02/01 09:01:19;;;;;;;16.83;3.30;;;4.00;99.90;;;;;;4952855;28;20531;-66
2022/02/01 09:03:46;;;;;;;6.53;3.17;;;4.10;99.90;;;;;;4953088;28;20642;-67
2022/02/01 09:06:12;;;;;;;4.50;2.80;;;4.20;99.90;;;;;;4952566;28;20187;-67
2022/02/01 09:08:37;;;;;;;2.73;2.47;;;4.30;99.90;;;;;;4952250;28;20440;-67
2022/02/01 09:11:03;;;;;;;6.67;2.57;;;4.40;99.90;;;;;;4952890;28;20209;-67
2022/02/01 09:13:28;;;;;;;7.20;2.80;;;4.20;99.90;;;;;;4951670;28;20586;-67
2022/02/01 09:15:54;;;;;;;10.27;3.23;;;4.30;99.90;;;;;;4952460;28;20185;-67
2022/02/01 09:18:19;;;;;;;5.87;2.50;;;4.40;99.90;;;;;;4954749;28;20181;-67
2022/02/01 09:20:45;;;;;;;6.97;2.53;;;4.50;99.90;;;;;;4952546;28;20554;-67
2022/02/01 09:23:11;;;;;;;2.67;1.83;;;4.60;99.90;;;;;;4952649;28;20674;-66
2022/02/01 09:25:37;;;;;;;6.17;2.87;;;4.60;99.90;;;;;;4952549;29;20436;-67
2022/02/01 09:28:03;;;;;;;7.00;2.60;;;4.50;99.90;;;;;;4953091;29;20176;-66
2022/02/01 09:30:30;;;;;;;4.00;3.03;;;4.40;99.90;;;;;;4952501;28;20201;-66
2022/02/01 09:32:55;;;;;;;5.87;2.30;;;4.50;99.90;;;;;;4952596;28;20476;-66
2022/02/01 09:35:21;;;;;;;6.33;3.27;;;4.40;99.90;;;;;;4951611;29;20882;-67
2022/02/01 09:37:48;;;;;;;4.20;2.10;;;4.50;99.90;;;;;;4954999;28;20690;-66
2022/02/01 09:40:14;;;;;;;4.07;1.77;;;4.50;99.90;;;;;;4955989;28;20178;-66
2022/02/01 09:42:40;;;;;;;6.90;2.53;;;4.50;99.90;;;;;;4956184;29;20494;-66
2022/02/01 09:45:07;;;;;;;7.13;2.20;;;4.60;99.90;;;;;;4955371;29;20177;-66
2022/02/01 09:47:35;;;;;;;4.97;3.43;;;4.80;99.90;;;;;;4956092;29;20255;-66
2022/02/01 09:50:02;;;;;;;6.63;2.70;;;4.90;99.90;;;;;;4955606;28;20534;-66
2022/02/01 09:52:30;;;;;;;5.57;2.00;;;5.00;99.90;;;;;;4955913;29;20436;-66
2022/02/01 09:54:56;;;;;;;8.87;2.73;;;5.10;99.90;;;;;;4954914;28;20856;-66
2022/02/01 09:57:22;;;;;;;5.60;2.17;;;5.10;99.90;;;;;;4955876;28;20436;-64
2022/02/01 10:00:01;;;;;;;10.23;2.57;;;5.10;99.90;;;;;;4955409;29;20177;-66
2022/02/01 10:02:39;;;;;;;4.57;2.10;;;4.90;99.90;;;;;;4954827;28;20188;-66
2022/02/01 10:05:09;;;;;;;4.70;2.27;;;4.80;99.90;;;;;;4955181;29;20432;-65
2022/02/01 10:07:53;;;;;;;8.10;2.63;;;4.70;99.90;;;;;;4955701;29;20823;-65
2022/02/01 10:10:21;;;;;;;6.40;1.97;;;4.80;99.90;;;;;;4955600;28;20471;-65
2022/02/01 10:13:15;;;;;;;6.30;2.40;;;4.70;99.90;;;;;;4955725;29;20459;-65
2022/02/01 10:15:59;;;;;;;4.27;1.80;;;4.70;99.90;;;;;;4952573;29;20439;-66
2022/02/01 10:18:26;;;;;;;8.47;2.47;;;4.70;99.90;;;;;;4955623;28;20432;-65
2022/02/01 10:20:52;;;;;;;4.60;2.77;;;4.70;99.90;;;;;;4955241;29;20559;-65
2022/02/01 10:23:28;;;;;;;11.60;2.73;;;4.80;99.90;;;;;;4955373;28;20974;-66
2022/02/01 10:26:06;;;;;;;3.20;1.70;;;4.90;99.90;;;;;;4953995;29;20320;-65
2022/02/01 10:28:42;;;;;;;2.60;1.80;;;4.90;99.90;;;;;;4950779;29;20443;-66
2022/02/01 10:31:12;;;;;;;10.13;2.30;;;5.20;99.90;;;;;;4955161;29;20467;-66
2022/02/01 10:36:22;;;;;;;3.43;2.03;;;5.60;99.90;;;;;;4948398;29;20946;-65
2022/02/01 10:38:49;;;;;;;4.17;2.13;;;5.40;99.90;;;;;;4955256;28;20429;-66
2022/02/01 10:41:15;;;;;;;4.20;2.10;;;5.10;99.90;;;;;;4955115;29;20240;-66
2022/02/01 10:43:41;;;;;;;2.70;1.90;;;5.00;99.90;;;;;;4954918;28;20517;-65
2022/02/01 10:46:12;;;;;;;6.80;2.13;;;5.00;99.90;;;;;;4954469;28;20433;-65
2022/02/01 10:48:44;;;;;;;7.57;1.70;;;4.90;99.90;;;;;;4948661;28;20553;-65
2022/02/01 10:51:15;;;;;;;5.47;2.03;;;4.90;99.90;;;;;;4946191;29;20472;-65
2022/02/01 10:53:41;;;;;;;4.03;1.33;;;4.90;99.90;;;;;;4951141;29;21098;-65
2022/02/01 10:56:09;;;;;;;8.00;2.30;;;5.10;99.90;;;;;;4947871;29;20436;-66
2022/02/01 10:58:36;;;;;;;7.57;2.03;;;5.00;99.90;;;;;;4950481;29;21203;-65
2022/02/01 11:01:03;;;;;;;4.03;1.97;;;5.10;99.90;;;;;;4951210;28;20476;-66
2022/02/01 11:03:30;;;;;;;6.90;1.83;;;5.20;99.90;;;;;;4950926;28;20487;-64
2022/02/01 11:05:57;;;;;;;3.83;2.20;;;5.30;99.90;;;;;;4951314;28;20942;-67
2022/02/01 11:08:26;;;;;;;9.43;2.20;;;5.40;99.90;;;;;;4951319;29;21085;-65
2022/02/01 11:10:56;;;;;;;4.33;1.90;;;5.50;99.90;;;;;;4951428;28;20559;-65
2022/02/01 11:13:23;;;;;;;7.87;2.10;;;5.30;99.90;;;;;;4950233;29;20460;-65
2022/02/01 11:16:00;;;;;;;5.13;2.13;;;5.20;99.90;;;;;;4950734;29;20448;-66
2022/02/01 11:18:27;;;;;;;8.43;2.90;;;5.30;99.90;;;;;;4951237;29;20451;-66
2022/02/01 11:21:14;;;;;;;7.60;3.30;;;5.10;99.90;;;;;;4951175;29;20444;-65
2022/02/01 11:23:54;;;;;;;4.50;3.40;;;5.00;99.90;;;;;;4947523;29;20460;-65
2022/02/01 11:26:36;;;;;;;6.90;2.83;;;5.20;99.90;;;;;;4950314;29;20436;-64
2022/02/01 11:31:49;;;;;;;5.40;2.10;;;5.30;99.90;;;;;;4951102;28;20472;-65
2022/02/01 11:34:31;;;;;;;8.53;1.97;;;5.30;99.90;;;;;;4949759;28;20456;-66
2022/02/01 11:36:59;;;;;;;5.93;2.43;;;5.40;99.90;;;;;;4946999;29;20480;-66
2022/02/01 11:39:26;;;;;;;9.93;2.17;;;5.90;99.90;;;;;;4950540;28;20479;-66
2022/02/01 11:41:53;;;;;;;8.50;2.03;;;6.10;99.90;;;;;;4951213;29;20441;-67
2022/02/01 11:44:29;;;;;;;4.77;2.60;;;5.90;99.90;;;;;;4950147;28;20887;-65
2022/02/01 11:47:15;;;;;;;3.40;2.00;;;5.70;99.90;;;;;;4947886;29;20444;-64
2022/02/01 11:49:53;;;;;;;3.80;2.17;;;5.60;99.90;;;;;;4949563;29;20968;-64
2022/02/01 11:52:20;;;;;;;5.30;2.50;;;5.20;99.90;;;;;;4950220;29;20455;-64
2022/02/01 11:54:48;;;;;;;5.33;3.80;;;5.00;99.90;;;;;;4950306;29;20970;-65
2022/02/01 11:57:29;;;;;;;4.00;2.37;;;4.90;99.90;;;;;;4949894;28;20424;-65
2022/02/01 11:59:58;;;;;;;5.03;2.37;;;5.10;99.90;;;;;;4944341;28;20432;-65
2022/02/01 12:02:29;;;;;;;3.87;2.57;;;4.90;99.90;;;;;;4950644;28;20444;-65
2022/02/01 12:05:29;;;;;;;2.60;1.60;;;5.00;99.90;;;;;;4949963;29;20527;-63
2022/02/01 12:08:12;;;;;;;8.03;1.67;;;4.80;99.90;;;;;;4949891;29;20450;-65
2022/02/01 12:10:50;;;;;;;2.40;1.60;;;4.70;99.90;;;;;;4946654;29;20467;-65
2022/02/01 12:13:18;;;;;;;3.53;1.63;;;4.70;99.90;;;;;;4950150;28;20456;-65
2022/02/01 12:15:45;;;;;;;7.53;1.97;;;4.50;99.90;;;;;;4950137;29;21040;-65
2022/02/01 12:18:10;;;;;;;6.93;3.33;;;4.40;99.90;;;;;;4950073;29;20528;-65
2022/02/01 12:20:38;;;;;;;6.27;1.97;;;4.30;99.90;;;;;;4950702;29;20525;-65
2022/02/01 12:23:25;;;;;;;6.70;2.10;;;4.30;99.90;;;;;;4949910;29;20209;-65
2022/02/01 12:25:52;;;;;;;3.80;1.60;;;4.30;99.90;;;;;;4949505;28;20440;-64
2022/02/01 12:28:29;;;;;;;6.70;3.00;;;4.20;99.90;;;;;;4949402;29;20441;-65
2022/02/01 12:31:12;;;;;;;7.10;2.37;;;4.20;99.90;;;;;;4950176;28;20464;-65
2022/02/01 12:33:44;;;;;;;3.60;1.70;;;4.20;99.90;;;;;;4949564;29;20456;-65
2022/02/01 12:36:12;;;;;;;4.97;2.20;;;4.10;99.90;;;;;;4949901;28;20463;-64
2022/02/01 12:38:40;;;;;;;2.83;1.70;;;4.00;99.90;;;;;;4949016;29;20892;-65
2022/02/01 12:41:14;;;;;;;3.93;1.40;;;4.10;99.90;;;;;;4949887;29;20440;-65
2022/02/01 12:45:49;;;;;;;1.77;1.10;;;4.10;99.90;;;;;;4949895;28;20452;-65
2022/02/01 12:46:52;;;;;;;1.80;1.43;;;4.20;99.90;;;;;;4945336;29;20474;-65
2022/02/01 12:49:18;;;;;;;1.57;1.47;;;4.30;99.90;;;;;;4949248;28;20546;-65
2022/02/01 12:51:47;;;;;;;5.73;1.50;;;4.40;99.90;;;;;;4951030;28;20476;-65
2022/02/01 12:54:20;;;;;;;3.57;2.07;;;4.60;99.90;;;;;;4949603;29;20452;-65
2022/02/01 12:56:46;;;;;;;3.23;1.40;;;4.90;99.90;;;;;;4949828;28;20440;-65
2022/02/01 12:59:11;;;;;;;2.53;1.20;;;4.90;99.90;;;;;;4949087;28;20551;-65
2022/02/01 13:01:39;;;;;;;1.60;1.50;;;4.90;99.90;;;;;;4949143;28;20607;-65
2022/02/01 13:04:07;;;;;;;7.73;2.83;;;4.90;99.90;;;;;;4950237;28;20236;-64
2022/02/01 13:06:36;;;;;;;3.67;1.30;;;4.90;99.90;;;;;;4947708;29;20819;-65
2022/02/01 13:14:44;;;;;;;3.70;2.00;;;4.80;99.90;;;;;;4953771;29;20455;-64
2022/02/01 13:17:19;;;;;;;3.00;1.80;;;4.70;99.90;;;;;;4953092;28;20436;-65
2022/02/01 13:20:06;;;;;;;1.30;1.20;;;4.60;99.90;;;;;;4952918;29;20440;-64
2022/02/01 13:22:36;;;;;;;4.23;1.70;;;4.60;99.90;;;;;;4952600;29;20949;-65
2022/02/01 13:25:04;;;;;;;2.17;1.23;;;4.60;99.90;;;;;;4952735;29;20938;-65
2022/02/01 13:27:30;;;;;;;1.83;1.20;;;4.70;99.90;;;;;;4945207;29;20447;-65
2022/02/01 13:30:05;;;;;;;4.50;1.83;;;4.80;99.90;;;;;;4953057;28;20458;-65
2022/02/01 13:32:36;;;;;;;3.00;1.40;;;4.60;99.90;;;;;;4950296;29;20181;-65
2022/02/01 13:35:08;;;;;;;2.70;1.20;;;4.50;99.90;;;;;;4952642;29;20429;-65
2022/02/01 13:37:35;;;;;;;4.00;1.50;;;4.30;99.90;;;;;;4953032;28;20474;-64
2022/02/01 13:40:03;;;;;;;4.43;1.17;;;4.30;99.90;;;;;;4953088;29;20428;-65
2022/02/01 13:42:31;;;;;;;1.80;1.13;;;4.20;99.90;;;;;;4952627;28;20506;-65
2022/02/01 13:45:03;;;;;;;1.73;1.40;;;4.20;99.90;;;;;;4952177;29;20429;-65
2022/02/01 13:47:34;;;;;;;2.27;1.40;;;4.20;99.90;;;;;;4952829;29;20436;-64
2022/02/01 13:50:01;;;;;;;1.87;1.50;;;4.20;99.90;;;;;;4952637;28;20440;-65
2022/02/01 13:52:26;;;;;;;3.10;1.90;;;4.10;99.90;;;;;;4947239;29;20809;-65
2022/02/01 13:54:52;;;;;;;2.83;2.47;;;4.10;99.90;;;;;;4952672;28;20432;-64
2022/02/01 13:57:20;;;;;;;3.00;1.43;;;4.00;99.90;;;;;;4952425;28;20195;-64
2022/02/01 13:59:48;;;;;;;2.50;1.80;;;4.00;99.90;;;;;;4952718;29;20228;-65
2022/02/01 14:02:23;;;;;;;3.83;1.80;;;3.90;99.90;;;;;;4952096;29;20464;-64
2022/02/01 14:05:04;;;;;;;5.33;2.10;;;3.90;99.90;;;;;;4952598;28;20443;-65
2022/02/01 14:08:02;;;;;;;5.20;2.30;;;3.80;99.90;;;;;;4947742;29;20443;-65
2022/02/01 14:24:43;;;;;;;3.40;2.30;;;3.70;99.90;;;;;;4951960;28;20463;-65
2022/02/01 14:34:29;;;;;;;2.27;2.07;;;3.40;99.90;;;;;;4961422;28;20513;-65
2022/02/01 14:37:00;;;;;;;3.83;2.33;;;3.30;99.90;;;;;;4965012;28;20769;-64
2022/02/01 14:44:58;;;;;;;3.07;2.20;;;3.20;99.90;;;;;;4933675;29;20428;-65
2022/02/01 14:47:23;;;;;;;2.50;2.10;;;3.20;99.90;;;;;;4935783;29;20480;-64
2022/02/01 14:49:50;;;;;;;3.37;2.23;;;3.10;99.90;;;;;;4937258;29;20185;-64